Terminal Aerodrome Forecast
Issued by NWS Cleveland, OH

Home | Current Version | Previous Version | Text Only | Print | Product List | Glossary Off
Versions: 1 2 3 4 5 6 7 8 9 10 11 12 13 14 15 16 17 18 19

463
FTUS41 KCLE 282326
TAFYNG
TAF
KYNG 282326Z 2900/2924 08005KT P6SM OVC009
      TEMPO 2903/2904 -SHRA
     FM290400 03006KT 4SM BR OVC003
     FM290700 04005KT 1 1/2SM -DZ BR OVC003
     FM291400 03005KT 4SM BR OVC003
     FM291600 01005KT P6SM OVC007
     FM291800 34007KT P6SM OVC015=

USA.gov is the U.S. government's official web portal to all federal, state and local government web resources and services.